Time;durP1;ratioP1;P1;durP2;ratioP2;P2;SDS_P1;SDS_P2;PMS_P1;PMS_P2;Temp;Humidity;BMP_temperature;BMP_pressure;BME280_temperature;BME280_humidity;BME280_pressure;Samples;Min_cycle;Max_cycle;Signal;HPM_P1;HPM_P2
2022/08/15 00:01:01;;;;;;;0.00;0.00;;;;;;;;;;5034871;28;20052;-89
2022/08/15 00:03:30;;;;;;;0.00;0.00;;;;;;;;;;5035071;28;20045;-89
2022/08/15 00:06:11;;;;;;;0.00;0.00;;;;;;;;;;5018123;28;20037;-88
2022/08/15 00:08:40;;;;;;;0.00;0.00;;;;;;;;;;5018666;28;20517;-89
2022/08/15 00:11:11;;;;;;;0.00;0.00;;;;;;;;;;5018022;28;20511;-89
2022/08/15 00:13:37;;;;;;;0.00;0.00;;;;;;;;;;5034474;28;20049;-87
2022/08/15 00:16:05;;;;;;;0.00;0.00;;;;;;;;;;5033926;28;20124;-86
2022/08/15 00:18:31;;;;;;;0.00;0.00;;;;;;;;;;5034122;28;20049;-88
2022/08/15 00:20:58;;;;;;;0.00;0.00;;;;;;;;;;5033977;28;20216;-86
2022/08/15 00:23:26;;;;;;;0.00;0.00;;;;;;;;;;5017542;28;20033;-86
2022/08/15 00:25:54;;;;;;;0.00;0.00;;;;;;;;;;5033934;28;20120;-86
2022/08/15 00:28:20;;;;;;;0.00;0.00;;;;;;;;;;5033779;28;20048;-87
2022/08/15 00:30:46;;;;;;;0.00;0.00;;;;;;;;;;5033748;28;20045;-87
2022/08/15 00:33:13;;;;;;;0.00;0.00;;;;;;;;;;5033985;28;20046;-86
2022/08/15 00:35:46;;;;;;;0.00;0.00;;;;;;;;;;5033873;28;20077;-86
2022/08/15 00:38:21;;;;;;;0.00;0.00;;;;;;;;;;5033605;28;20037;-86
2022/08/15 00:43:34;;;;;;;0.00;0.00;;;;;;;;;;5034138;28;20052;-86
2022/08/15 00:46:00;;;;;;;0.00;0.00;;;;;;;;;;5034020;28;20049;-86
2022/08/15 00:48:42;;;;;;;0.00;0.00;;;;;;;;;;5033802;28;20480;-87
2022/08/15 00:51:31;;;;;;;0.00;0.00;;;;;;;;;;5032950;28;20065;-87
2022/08/15 00:54:08;;;;;;;0.00;0.00;;;;;;;;;;5026146;28;20441;-87
2022/08/15 00:56:38;;;;;;;0.00;0.00;;;;;;;;;;5033550;28;20052;-88
2022/08/15 00:59:05;;;;;;;0.00;0.00;;;;;;;;;;5033713;28;20030;-88
2022/08/15 01:01:32;;;;;;;0.00;0.00;;;;;;;;;;5016704;28;20400;-87
2022/08/15 01:03:58;;;;;;;0.00;0.00;;;;;;;;;;5017085;28;20076;-87
2022/08/15 01:06:25;;;;;;;0.00;0.00;;;;;;;;;;5016877;28;20041;-86
2022/08/15 01:08:51;;;;;;;0.00;0.00;;;;;;;;;;5033157;28;20045;-86
2022/08/15 01:11:26;;;;;;;0.00;0.00;;;;;;;;;;5016650;28;20049;-88
2022/08/15 01:13:53;;;;;;;0.00;0.00;;;;;;;;;;5016625;28;20041;-88
2022/08/15 01:16:21;;;;;;;0.00;0.00;;;;;;;;;;5032950;28;20053;-86
2022/08/15 01:18:47;;;;;;;0.00;0.00;;;;;;;;;;5032791;28;20087;-87
2022/08/15 01:21:21;;;;;;;0.00;0.00;;;;;;;;;;5033063;28;20041;-87
2022/08/15 01:23:52;;;;;;;0.00;0.00;;;;;;;;;;5032880;28;20042;-86
2022/08/15 01:26:21;;;;;;;0.00;0.00;;;;;;;;;;5032769;28;20044;-86
2022/08/15 01:28:47;;;;;;;0.00;0.00;;;;;;;;;;5015894;28;20507;-85
2022/08/15 01:31:14;;;;;;;0.00;0.00;;;;;;;;;;5032656;28;20041;-86
2022/08/15 01:33:42;;;;;;;0.00;0.00;;;;;;;;;;5032529;28;20123;-87
2022/08/15 01:36:09;;;;;;;0.10;0.00;;;;;;;;;;5032513;28;20042;-87
2022/08/15 01:38:37;;;;;;;0.00;0.00;;;;;;;;;;5032738;28;20385;-87
2022/08/15 01:41:04;;;;;;;0.00;0.00;;;;;;;;;;5032739;28;20048;-88
2022/08/15 01:43:33;;;;;;;0.20;0.08;;;;;;;;;;5032418;28;20127;-87
2022/08/15 01:46:02;;;;;;;0.00;0.00;;;;;;;;;;5032581;28;20049;-87
2022/08/15 01:48:34;;;;;;;0.00;0.00;;;;;;;;;;5015633;28;20038;-87
2022/08/15 01:51:02;;;;;;;0.00;0.00;;;;;;;;;;5032155;28;20069;-87
2022/08/15 01:53:32;;;;;;;0.00;0.00;;;;;;;;;;5032226;28;20056;-87
2022/08/15 01:56:07;;;;;;;0.00;0.00;;;;;;;;;;5032223;28;20041;-88
2022/08/15 01:58:36;;;;;;;0.00;0.00;;;;;;;;;;5015519;28;20480;-86
2022/08/15 02:01:08;;;;;;;0.00;0.00;;;;;;;;;;5032066;28;20124;-86
2022/08/15 02:03:34;;;;;;;0.00;0.00;;;;;;;;;;5030908;28;20049;-86
2022/08/15 02:06:05;;;;;;;0.30;0.08;;;;;;;;;;5031934;28;20048;-87
2022/08/15 02:08:31;;;;;;;0.00;0.00;;;;;;;;;;5031839;28;20041;-87
2022/08/15 02:10:57;;;;;;;0.00;0.00;;;;;;;;;;5032161;28;20062;-87
2022/08/15 02:13:23;;;;;;;0.20;0.00;;;;;;;;;;5031733;28;20132;-87
2022/08/15 02:15:50;;;;;;;0.00;0.00;;;;;;;;;;5015165;28;20050;-86
2022/08/15 02:18:16;;;;;;;0.00;0.00;;;;;;;;;;5015074;28;20041;-87
2022/08/15 02:20:42;;;;;;;0.00;0.00;;;;;;;;;;5031512;28;20041;-86
2022/08/15 02:23:08;;;;;;;0.00;0.00;;;;;;;;;;5031445;28;20041;-87
2022/08/15 02:25:35;;;;;;;0.00;0.00;;;;;;;;;;5031538;28;20041;-86
2022/08/15 02:28:01;;;;;;;0.00;0.00;;;;;;;;;;5031428;28;20045;-86
2022/08/15 02:30:30;;;;;;;0.00;0.00;;;;;;;;;;5031420;28;20048;-87
2022/08/15 02:32:56;;;;;;;0.10;0.10;;;;;;;;;;5015245;28;20405;-86
2022/08/15 02:35:22;;;;;;;0.00;0.00;;;;;;;;;;5032574;28;20037;-91
2022/08/15 02:37:49;;;;;;;0.00;0.00;;;;;;;;;;5031989;28;20077;-87
2022/08/15 02:40:16;;;;;;;0.00;0.00;;;;;;;;;;5031940;28;20041;-87
2022/08/15 02:42:44;;;;;;;0.45;0.15;;;;;;;;;;5031346;28;20064;-87
2022/08/15 02:45:10;;;;;;;0.00;0.00;;;;;;;;;;5031514;28;20060;-87
2022/08/15 02:47:37;;;;;;;0.00;0.00;;;;;;;;;;5031056;28;20041;-86
2022/08/15 02:50:05;;;;;;;0.00;0.00;;;;;;;;;;5031063;28;20107;-87
2022/08/15 02:52:31;;;;;;;0.00;0.00;;;;;;;;;;5031025;28;20049;-88
2022/08/15 02:54:59;;;;;;;0.00;0.00;;;;;;;;;;5031593;28;20396;-87
2022/08/15 02:57:25;;;;;;;0.00;0.00;;;;;;;;;;5014471;28;20047;-87
2022/08/15 02:59:51;;;;;;;0.00;0.00;;;;;;;;;;5030833;28;20046;-87
2022/08/15 03:02:17;;;;;;;0.00;0.00;;;;;;;;;;5014463;28;20047;-87
2022/08/15 03:04:46;;;;;;;0.00;0.00;;;;;;;;;;5031239;28;20041;-87
2022/08/15 03:07:12;;;;;;;0.00;0.00;;;;;;;;;;5014629;28;20143;-87
2022/08/15 03:09:38;;;;;;;0.00;0.00;;;;;;;;;;5030928;28;20041;-86
2022/08/15 03:12:04;;;;;;;0.00;0.00;;;;;;;;;;5031041;28;20045;-88
2022/08/15 03:14:30;;;;;;;0.00;0.00;;;;;;;;;;5030905;28;20076;-88
2022/08/15 03:16:57;;;;;;;0.00;0.00;;;;;;;;;;5014292;28;20515;-87
2022/08/15 03:19:26;;;;;;;0.20;0.05;;;;;;;;;;5030701;28;20041;-88
2022/08/15 03:21:53;;;;;;;0.00;0.00;;;;;;;;;;5031313;28;20473;-87
2022/08/15 03:24:22;;;;;;;0.00;0.00;;;;;;;;;;5030713;28;20201;-86
2022/08/15 03:26:49;;;;;;;0.00;0.00;;;;;;;;;;5014321;28;20092;-87
2022/08/15 03:29:16;;;;;;;0.00;0.00;;;;;;;;;;5030622;28;20107;-87
2022/08/15 03:31:43;;;;;;;0.00;0.00;;;;;;;;;;5030846;28;20517;-87
2022/08/15 03:34:09;;;;;;;0.00;0.00;;;;;;;;;;5030762;28;20049;-87
2022/08/15 03:36:36;;;;;;;0.00;0.00;;;;;;;;;;5030709;28;20388;-87
2022/08/15 03:39:02;;;;;;;0.00;0.00;;;;;;;;;;5030650;28;20049;-88
2022/08/15 03:41:28;;;;;;;0.00;0.00;;;;;;;;;;5014745;28;20072;-89
2022/08/15 03:43:54;;;;;;;0.00;0.00;;;;;;;;;;5031179;28;20105;-89
2022/08/15 03:46:21;;;;;;;0.00;0.00;;;;;;;;;;5030757;28;20037;-87
2022/08/15 03:48:51;;;;;;;0.05;0.03;;;;;;;;;;5030780;28;20039;-87
2022/08/15 03:51:18;;;;;;;0.00;0.00;;;;;;;;;;5030634;28;20053;-87
2022/08/15 03:53:46;;;;;;;0.00;0.00;;;;;;;;;;5030658;28;20116;-88
2022/08/15 03:56:13;;;;;;;0.00;0.00;;;;;;;;;;5014114;28;20038;-87
2022/08/15 03:58:40;;;;;;;0.10;0.00;;;;;;;;;;5030258;28;20045;-88
2022/08/15 04:01:07;;;;;;;0.00;0.00;;;;;;;;;;5030614;28;20041;-88
2022/08/15 04:03:33;;;;;;;0.00;0.00;;;;;;;;;;5014141;28;20037;-88
2022/08/15 04:06:00;;;;;;;0.00;0.00;;;;;;;;;;5030517;28;20389;-88
2022/08/15 04:08:30;;;;;;;1.55;0.10;;;;;;;;;;5030413;28;20190;-88
2022/08/15 04:10:57;;;;;;;0.00;0.00;;;;;;;;;;5014447;28;20213;-87
2022/08/15 04:13:24;;;;;;;0.00;0.00;;;;;;;;;;5014525;28;20571;-87
2022/08/15 04:15:54;;;;;;;0.10;0.00;;;;;;;;;;5030270;28;20045;-87
2022/08/15 04:18:20;;;;;;;0.00;0.00;;;;;;;;;;5030155;28;20057;-87
2022/08/15 04:20:47;;;;;;;0.00;0.00;;;;;;;;;;5030553;28;20041;-87
2022/08/15 04:23:13;;;;;;;0.00;0.00;;;;;;;;;;5030540;28;20151;-87
2022/08/15 04:25:41;;;;;;;0.00;0.00;;;;;;;;;;5030340;28;20045;-88
2022/08/15 04:28:08;;;;;;;0.00;0.00;;;;;;;;;;5033890;28;20060;-88
2022/08/15 04:30:35;;;;;;;0.00;0.00;;;;;;;;;;5033652;28;20060;-87
2022/08/15 04:33:15;;;;;;;0.00;0.00;;;;;;;;;;5034406;28;20405;-88
2022/08/15 04:35:42;;;;;;;0.00;0.00;;;;;;;;;;5033688;28;20045;-87
2022/08/15 04:38:09;;;;;;;0.00;0.00;;;;;;;;;;5033926;28;20408;-88
2022/08/15 04:40:36;;;;;;;0.00;0.00;;;;;;;;;;5017160;28;20045;-88
2022/08/15 04:43:02;;;;;;;0.00;0.00;;;;;;;;;;5034078;28;20037;-87
2022/08/15 04:45:30;;;;;;;0.00;0.00;;;;;;;;;;5033382;28;20041;-88
2022/08/15 04:47:56;;;;;;;0.00;0.00;;;;;;;;;;5033988;28;20060;-87
2022/08/15 04:50:22;;;;;;;0.00;0.00;;;;;;;;;;5033270;28;20428;-86
2022/08/15 04:52:51;;;;;;;0.00;0.00;;;;;;;;;;5017240;28;20049;-87
2022/08/15 04:55:17;;;;;;;0.00;0.00;;;;;;;;;;5034015;28;20116;-86
2022/08/15 04:57:44;;;;;;;0.00;0.00;;;;;;;;;;5033387;28;20041;-86
2022/08/15 05:00:11;;;;;;;0.00;0.00;;;;;;;;;;5033098;28;20554;-86
2022/08/15 05:02:38;;;;;;;0.00;0.00;;;;;;;;;;5033489;28;20044;-87
2022/08/15 05:05:05;;;;;;;0.00;0.00;;;;;;;;;;5033600;28;20041;-86
2022/08/15 05:07:31;;;;;;;0.00;0.00;;;;;;;;;;5033104;28;20044;-86
2022/08/15 05:09:57;;;;;;;0.00;0.00;;;;;;;;;;5033167;28;20041;-87
2022/08/15 05:12:23;;;;;;;0.00;0.00;;;;;;;;;;5033291;28;20048;-88
2022/08/15 05:14:50;;;;;;;0.00;0.00;;;;;;;;;;5033275;28;20041;-87
2022/08/15 05:17:16;;;;;;;0.00;0.00;;;;;;;;;;5016563;28;20045;-87
2022/08/15 05:19:42;;;;;;;0.00;0.00;;;;;;;;;;5016598;28;20042;-88
2022/08/15 05:22:09;;;;;;;0.00;0.00;;;;;;;;;;5033044;28;20048;-88
2022/08/15 05:24:35;;;;;;;0.00;0.00;;;;;;;;;;5033143;28;20073;-88
2022/08/15 05:27:01;;;;;;;0.20;0.13;;;;;;;;;;5016502;28;20116;-86
2022/08/15 05:29:27;;;;;;;0.00;0.00;;;;;;;;;;5032830;28;20049;-86
2022/08/15 05:31:54;;;;;;;0.00;0.00;;;;;;;;;;5032866;28;20120;-88
2022/08/15 05:34:20;;;;;;;0.00;0.00;;;;;;;;;;5033245;28;20037;-87
2022/08/15 05:36:49;;;;;;;0.00;0.00;;;;;;;;;;5032629;28;20459;-86
2022/08/15 05:39:21;;;;;;;0.00;0.00;;;;;;;;;;5016247;28;20037;-86
2022/08/15 05:42:11;;;;;;;0.00;0.00;;;;;;;;;;5033232;28;20091;-87
2022/08/15 05:44:37;;;;;;;0.00;0.00;;;;;;;;;;5033034;28;20579;-87
2022/08/15 05:47:10;;;;;;;0.00;0.00;;;;;;;;;;5016984;28;20041;-87
2022/08/15 05:50:00;;;;;;;0.00;0.00;;;;;;;;;;5032902;28;20132;-87
2022/08/15 05:52:35;;;;;;;0.00;0.00;;;;;;;;;;5005937;28;20049;-87
2022/08/15 05:55:02;;;;;;;;;;;;;;;;;;5033433;28;20135;-89
2022/08/15 05:57:28;;;;;;;0.30;0.00;;;;;;;;;;5033105;28;19970;-89
2022/08/15 05:59:57;;;;;;;0.00;0.00;;;;;;;;;;5015640;28;20125;-87
2022/08/15 06:02:23;;;;;;;0.00;0.00;;;;;;;;;;5032287;28;20087;-87
2022/08/15 06:05:08;;;;;;;0.00;0.00;;;;;;;;;;5032304;28;20083;-88
2022/08/15 06:07:34;;;;;;;0.00;0.00;;;;;;;;;;5032136;28;20044;-87
2022/08/15 06:10:03;;;;;;;0.00;0.00;;;;;;;;;;5031728;28;20372;-87
2022/08/15 06:12:32;;;;;;;0.00;0.00;;;;;;;;;;5032214;28;20041;-87
2022/08/15 06:15:07;;;;;;;0.00;0.00;;;;;;;;;;5031890;28;20371;-87
2022/08/15 06:17:38;;;;;;;0.00;0.00;;;;;;;;;;5031859;28;20128;-87
2022/08/15 06:20:07;;;;;;;0.00;0.00;;;;;;;;;;5031920;28;20542;-87
2022/08/15 06:22:48;;;;;;;0.00;0.00;;;;;;;;;;5032045;28;20136;-88
2022/08/15 06:25:33;;;;;;;0.00;0.00;;;;;;;;;;5015407;28;20044;-87
2022/08/15 06:27:59;;;;;;;0.00;0.00;;;;;;;;;;5031879;28;20037;-87
2022/08/15 06:30:28;;;;;;;0.00;0.00;;;;;;;;;;5031548;28;20543;-86
2022/08/15 06:33:10;;;;;;;0.22;0.03;;;;;;;;;;5032136;28;20056;-82
2022/08/15 06:35:55;;;;;;;0.00;0.00;;;;;;;;;;5031304;28;20049;-85
2022/08/15 06:38:21;;;;;;;;;;;;;;;;;;5032042;28;20052;-85
2022/08/15 06:40:50;;;;;;;0.00;0.00;;;;;;;;;;5031315;28;19917;-84
2022/08/15 06:43:16;;;;;;;0.00;0.00;;;;;;;;;;5015198;28;20046;-84
2022/08/15 06:45:44;;;;;;;0.00;0.00;;;;;;;;;;5014664;28;20124;-84
2022/08/15 06:48:13;;;;;;;0.00;0.00;;;;;;;;;;5031433;28;20527;-84
2022/08/15 06:50:45;;;;;;;0.00;0.00;;;;;;;;;;5030240;28;20057;-84
2022/08/15 06:53:11;;;;;;;0.00;0.00;;;;;;;;;;5032201;28;20101;-88
2022/08/15 06:55:43;;;;;;;0.00;0.00;;;;;;;;;;5030965;28;20453;-82
2022/08/15 06:58:14;;;;;;;0.00;0.00;;;;;;;;;;5031697;28;20042;-84
2022/08/15 07:01:01;;;;;;;0.00;0.00;;;;;;;;;;5031660;28;20045;-85
2022/08/15 07:03:36;;;;;;;0.00;0.00;;;;;;;;;;5031446;28;20080;-84
2022/08/15 07:06:02;;;;;;;0.00;0.00;;;;;;;;;;5032259;28;20476;-82
2022/08/15 07:08:48;;;;;;;0.00;0.00;;;;;;;;;;5014249;28;20049;-84
2022/08/15 07:11:14;;;;;;;0.00;0.00;;;;;;;;;;5027983;28;20037;-84
2022/08/15 07:13:59;;;;;;;0.00;0.00;;;;;;;;;;5028086;28;20050;-84
2022/08/15 07:16:46;;;;;;;0.00;0.00;;;;;;;;;;5027646;28;20045;-83
2022/08/15 07:19:12;;;;;;;0.00;0.00;;;;;;;;;;5028128;28;20044;-85
2022/08/15 07:21:38;;;;;;;0.00;0.00;;;;;;;;;;5027769;28;20041;-84
2022/08/15 07:24:08;;;;;;;0.00;0.00;;;;;;;;;;5011705;28;20037;-83
2022/08/15 07:26:52;;;;;;;0.00;0.00;;;;;;;;;;5011465;28;20128;-84
2022/08/15 07:29:27;;;;;;;0.00;0.00;;;;;;;;;;5027921;28;20061;-84
2022/08/15 07:31:59;;;;;;;0.00;0.00;;;;;;;;;;5011313;28;20478;-84
2022/08/15 07:34:25;;;;;;;0.00;0.00;;;;;;;;;;5011623;28;20038;-83
2022/08/15 07:36:56;;;;;;;0.00;0.00;;;;;;;;;;5028438;28;20045;-89
2022/08/15 07:39:48;;;;;;;0.00;0.00;;;;;;;;;;5027443;28;20037;-83
2022/08/15 07:42:18;;;;;;;0.00;0.00;;;;;;;;;;5048159;28;20127;-83
2022/08/15 07:44:55;;;;;;;0.00;0.00;;;;;;;;;;5051370;28;20185;-85
2022/08/15 07:47:23;;;;;;;0.00;0.00;;;;;;;;;;5050901;28;20044;-85
2022/08/15 07:50:03;;;;;;;0.00;0.00;;;;;;;;;;5050896;28;20057;-85
2022/08/15 07:52:30;;;;;;;0.00;0.00;;;;;;;;;;5034024;28;20045;-83
2022/08/15 07:54:58;;;;;;;0.00;0.00;;;;;;;;;;5050578;28;20040;-83
2022/08/15 07:57:27;;;;;;;0.00;0.00;;;;;;;;;;5050277;28;20044;-84
2022/08/15 08:00:02;;;;;;;0.00;0.00;;;;;;;;;;5050480;28;20037;-84
2022/08/15 08:02:31;;;;;;;0.00;0.00;;;;;;;;;;5052237;28;20095;-84
2022/08/15 08:05:00;;;;;;;0.00;0.00;;;;;;;;;;5054566;28;20141;-84
2022/08/15 08:07:31;;;;;;;0.00;0.00;;;;;;;;;;5037454;28;20076;-82
2022/08/15 08:10:01;;;;;;;0.00;0.00;;;;;;;;;;5054271;28;20128;-82
2022/08/15 08:12:37;;;;;;;0.00;0.00;;;;;;;;;;5053962;28;20048;-83
2022/08/15 08:15:03;;;;;;;0.00;0.00;;;;;;;;;;5037589;28;20502;-83
2022/08/15 08:17:36;;;;;;;0.00;0.00;;;;;;;;;;5037297;28;20124;-84
2022/08/15 08:20:20;;;;;;;0.00;0.00;;;;;;;;;;5053995;28;20041;-79
2022/08/15 08:22:59;;;;;;;0.10;0.10;;;;;;;;;;5053728;28;20068;-81
2022/08/15 08:25:25;;;;;;;0.00;0.00;;;;;;;;;;5051793;28;20049;-81
2022/08/15 08:27:51;;;;;;;0.00;0.00;;;;;;;;;;5033792;28;20041;-81
2022/08/15 08:30:31;;;;;;;0.00;0.00;;;;;;;;;;5033852;28;20111;-81
2022/08/15 08:33:17;;;;;;;0.00;0.00;;;;;;;;;;5017741;28;20045;-82
2022/08/15 08:35:55;;;;;;;0.00;0.00;;;;;;;;;;5033789;28;20049;-82
2022/08/15 08:38:27;;;;;;;0.00;0.00;;;;;;;;;;5033887;28;20053;-82
2022/08/15 08:46:20;;;;;;;0.00;0.00;;;;;;;;;;5532015;22;20509;-81
2022/08/15 08:49:12;;;;;;;0.00;0.00;;;;;;;;;;5069046;28;20055;-80
2022/08/15 08:51:57;;;;;;;0.00;0.00;;;;;;;;;;5052518;28;20036;-81
2022/08/15 08:57:02;;;;;;;0.00;0.00;;;;;;;;;;4990892;28;19968;-81
2022/08/15 08:59:39;;;;;;;0.00;0.00;;;;;;;;;;4961887;28;20120;-82
2022/08/15 09:02:27;;;;;;;0.00;0.00;;;;;;;;;;4977403;28;20053;-81
2022/08/15 09:04:56;;;;;;;0.00;0.00;;;;;;;;;;4977691;28;20117;-81
2022/08/15 09:07:30;;;;;;;0.00;0.00;;;;;;;;;;4977558;28;20042;-81
2022/08/15 09:09:58;;;;;;;0.00;0.00;;;;;;;;;;4977196;28;20125;-81
2022/08/15 09:15:17;;;;;;;0.00;0.00;;;;;;;;;;4977680;28;20444;-81
2022/08/15 09:17:47;;;;;;;0.00;0.00;;;;;;;;;;4977181;28;20508;-81
2022/08/15 09:20:19;;;;;;;0.00;0.00;;;;;;;;;;4977504;28;20153;-81
2022/08/15 09:22:45;;;;;;;0.00;0.00;;;;;;;;;;4961252;28;20049;-81
2022/08/15 09:25:11;;;;;;;0.00;0.00;;;;;;;;;;4977410;28;20042;-81
2022/08/15 09:27:40;;;;;;;0.00;0.00;;;;;;;;;;4977480;28;20100;-81
2022/08/15 09:30:08;;;;;;;0.00;0.00;;;;;;;;;;4961248;28;20046;-81
2022/08/15 09:32:53;;;;;;;0.00;0.00;;;;;;;;;;4977095;28;20053;-81
2022/08/15 09:35:38;;;;;;;0.00;0.00;;;;;;;;;;4976968;28;20049;-81
2022/08/15 09:38:16;;;;;;;0.25;0.10;;;;;;;;;;4977007;28;20387;-81
2022/08/15 09:41:01;;;;;;;0.00;0.00;;;;;;;;;;4977011;28;20064;-81
2022/08/15 09:43:39;;;;;;;0.00;0.00;;;;;;;;;;4976869;28;20057;-83
2022/08/15 09:46:17;;;;;;;0.00;0.00;;;;;;;;;;4960838;28;20050;-82
2022/08/15 09:48:46;;;;;;;0.00;0.00;;;;;;;;;;4976708;28;20052;-82
2022/08/15 09:51:33;;;;;;;0.00;0.00;;;;;;;;;;4976811;28;20054;-82
2022/08/15 09:54:08;;;;;;;0.00;0.00;;;;;;;;;;4976538;28;20046;-82
2022/08/15 09:56:37;;;;;;;0.00;0.00;;;;;;;;;;4989108;28;20070;-82
2022/08/15 09:59:24;;;;;;;0.00;0.00;;;;;;;;;;4993102;28;20378;-82
2022/08/15 10:01:50;;;;;;;0.00;0.00;;;;;;;;;;4992834;28;20065;-82
2022/08/15 10:04:18;;;;;;;0.00;0.00;;;;;;;;;;4992964;28;20489;-82
2022/08/15 10:06:51;;;;;;;0.00;0.00;;;;;;;;;;4992933;28;20129;-82
2022/08/15 10:09:32;;;;;;;0.00;0.00;;;;;;;;;;4992723;28;20046;-82
2022/08/15 10:11:58;;;;;;;0.00;0.00;;;;;;;;;;4992537;28;20129;-82
2022/08/15 10:14:39;;;;;;;0.00;0.00;;;;;;;;;;4992634;28;20116;-82
2022/08/15 10:17:25;;;;;;;0.00;0.00;;;;;;;;;;4992304;28;20580;-82
2022/08/15 10:19:52;;;;;;;0.00;0.00;;;;;;;;;;4992582;28;20497;-82
2022/08/15 10:22:22;;;;;;;0.10;0.00;;;;;;;;;;4992327;28;20429;-83
2022/08/15 10:25:07;;;;;;;0.00;0.00;;;;;;;;;;4992028;28;20041;-89
2022/08/15 10:27:52;;;;;;;0.00;0.00;;;;;;;;;;4992228;28;20050;-83
2022/08/15 10:30:18;;;;;;;0.00;0.00;;;;;;;;;;4976247;28;20137;-83
2022/08/15 10:32:44;;;;;;;0.00;0.00;;;;;;;;;;4992227;28;20477;-83
2022/08/15 10:35:10;;;;;;;0.00;0.00;;;;;;;;;;4992304;28;20046;-83
2022/08/15 10:37:58;;;;;;;0.00;0.00;;;;;;;;;;4992073;28;20378;-83
2022/08/15 10:40:34;;;;;;;0.00;0.00;;;;;;;;;;4976007;28;20042;-89
2022/08/15 10:43:23;;;;;;;0.00;0.00;;;;;;;;;;4992062;28;20044;-83
2022/08/15 10:45:54;;;;;;;0.00;0.00;;;;;;;;;;4992113;28;20049;-83
2022/08/15 10:48:25;;;;;;;0.00;0.00;;;;;;;;;;4976013;28;20472;-83
2022/08/15 10:50:57;;;;;;;0.00;0.00;;;;;;;;;;4992482;28;20125;-82
2022/08/15 10:53:35;;;;;;;0.00;0.00;;;;;;;;;;4992025;28;20048;-82
2022/08/15 10:56:16;;;;;;;0.00;0.00;;;;;;;;;;4991781;28;20093;-82
2022/08/15 10:58:42;;;;;;;0.00;0.00;;;;;;;;;;4991630;28;20050;-82
2022/08/15 11:01:22;;;;;;;0.00;0.00;;;;;;;;;;4991915;28;20042;-83
2022/08/15 11:03:48;;;;;;;0.00;0.00;;;;;;;;;;4991914;28;20078;-83
2022/08/15 11:06:15;;;;;;;0.00;0.00;;;;;;;;;;4991782;28;20073;-83
2022/08/15 11:08:49;;;;;;;0.00;0.00;;;;;;;;;;4991618;28;20042;-83
2022/08/15 11:11:16;;;;;;;0.00;0.00;;;;;;;;;;4992008;28;20156;-83
2022/08/15 11:13:43;;;;;;;0.00;0.00;;;;;;;;;;4991765;28;20661;-83
2022/08/15 11:16:09;;;;;;;0.00;0.00;;;;;;;;;;4991594;28;20042;-83
2022/08/15 11:18:43;;;;;;;0.00;0.00;;;;;;;;;;4991440;28;20404;-83
2022/08/15 11:21:18;;;;;;;0.00;0.00;;;;;;;;;;4991753;28;20039;-83
2022/08/15 11:23:51;;;;;;;0.20;0.13;;;;;;;;;;4991362;28;20045;-83
2022/08/15 11:26:22;;;;;;;0.00;0.00;;;;;;;;;;4975361;28;20042;-83
2022/08/15 11:28:49;;;;;;;0.00;0.00;;;;;;;;;;4975408;28;20489;-83
2022/08/15 11:31:19;;;;;;;0.00;0.00;;;;;;;;;;4991642;28;20050;-83
2022/08/15 11:33:50;;;;;;;0.00;0.00;;;;;;;;;;4975213;28;20034;-83
2022/08/15 11:36:18;;;;;;;0.22;0.22;;;;;;;;;;4991195;28;20472;-84
2022/08/15 11:38:48;;;;;;;0.00;0.00;;;;;;;;;;4995461;28;20061;-83
2022/08/15 11:41:18;;;;;;;0.00;0.00;;;;;;;;;;4996265;28;20088;-83
2022/08/15 11:43:45;;;;;;;0.00;0.00;;;;;;;;;;4995534;28;20039;-82
2022/08/15 11:46:11;;;;;;;0.00;0.00;;;;;;;;;;4995623;28;20038;-82
2022/08/15 11:48:39;;;;;;;0.00;0.00;;;;;;;;;;4979134;28;20050;-82
2022/08/15 11:51:10;;;;;;;0.00;0.00;;;;;;;;;;4995752;28;20042;-82
2022/08/15 11:53:39;;;;;;;0.00;0.00;;;;;;;;;;4995368;28;20169;-82
2022/08/15 11:56:05;;;;;;;0.00;0.00;;;;;;;;;;4995310;28;20058;-82
2022/08/15 11:58:36;;;;;;;0.00;0.00;;;;;;;;;;4995346;28;20070;-82
2022/08/15 12:01:20;;;;;;;0.20;0.03;;;;;;;;;;4995619;28;20045;-82
2022/08/15 12:03:58;;;;;;;0.00;0.00;;;;;;;;;;4995308;28;20046;-83
2022/08/15 12:06:32;;;;;;;0.05;0.00;;;;;;;;;;4995269;28;20137;-83
2022/08/15 12:09:06;;;;;;;0.00;0.00;;;;;;;;;;4979931;28;20057;-82
2022/08/15 12:11:32;;;;;;;0.00;0.00;;;;;;;;;;4978861;28;20446;-82
2022/08/15 12:13:59;;;;;;;0.00;0.00;;;;;;;;;;4994909;28;20038;-80
2022/08/15 12:16:26;;;;;;;0.00;0.00;;;;;;;;;;4995244;28;20478;-83
2022/08/15 12:18:53;;;;;;;0.00;0.00;;;;;;;;;;4978609;28;20475;-82
2022/08/15 12:21:20;;;;;;;0.00;0.00;;;;;;;;;;4978741;28;20057;-82
2022/08/15 12:23:48;;;;;;;0.00;0.00;;;;;;;;;;4995133;28;20127;-83
2022/08/15 12:26:15;;;;;;;0.00;0.00;;;;;;;;;;4994932;28;20042;-87
2022/08/15 12:28:42;;;;;;;0.00;0.00;;;;;;;;;;4978800;28;20096;-83
2022/08/15 12:31:30;;;;;;;0.00;0.00;;;;;;;;;;4994833;28;20129;-81
2022/08/15 12:34:11;;;;;;;0.00;0.00;;;;;;;;;;4994747;28;20046;-82
2022/08/15 12:36:39;;;;;;;0.05;0.00;;;;;;;;;;4995448;28;20069;-83
2022/08/15 12:39:05;;;;;;;0.00;0.00;;;;;;;;;;4978608;28;20042;-82
2022/08/15 12:41:31;;;;;;;0.10;0.00;;;;;;;;;;4995062;28;20108;-82
2022/08/15 12:43:57;;;;;;;0.00;0.00;;;;;;;;;;4994562;28;20034;-82
2022/08/15 12:46:24;;;;;;;0.00;0.00;;;;;;;;;;4993673;28;20038;-82
2022/08/15 12:48:50;;;;;;;0.00;0.00;;;;;;;;;;4993780;28;20121;-82
2022/08/15 12:51:17;;;;;;;0.00;0.00;;;;;;;;;;4994477;28;20363;-82
2022/08/15 12:53:44;;;;;;;0.00;0.00;;;;;;;;;;4994539;28;20046;-82
2022/08/15 12:56:10;;;;;;;0.00;0.00;;;;;;;;;;4993946;28;20133;-82
2022/08/15 12:58:37;;;;;;;0.00;0.00;;;;;;;;;;4994172;28;20051;-82
2022/08/15 13:01:05;;;;;;;0.00;0.00;;;;;;;;;;4994285;28;20049;-82
2022/08/15 13:03:33;;;;;;;0.00;0.00;;;;;;;;;;4994120;28;20069;-82
2022/08/15 13:05:59;;;;;;;0.00;0.00;;;;;;;;;;4978213;28;20042;-82
2022/08/15 13:08:25;;;;;;;0.00;0.00;;;;;;;;;;4994156;28;20060;-82
2022/08/15 13:10:51;;;;;;;0.00;0.00;;;;;;;;;;4993871;28;20053;-82
2022/08/15 13:13:17;;;;;;;0.43;0.20;;;;;;;;;;4990466;28;20038;-82
2022/08/15 13:15:44;;;;;;;0.00;0.00;;;;;;;;;;4993708;28;20042;-82
2022/08/15 13:18:13;;;;;;;0.00;0.00;;;;;;;;;;4993933;28;20074;-82
2022/08/15 13:23:40;;;;;;;0.03;0.00;;;;;;;;;;4994168;28;20049;-82
2022/08/15 13:26:11;;;;;;;0.00;0.00;;;;;;;;;;4977329;28;20119;-82
2022/08/15 13:28:38;;;;;;;0.00;0.00;;;;;;;;;;4977631;28;20038;-82
2022/08/15 13:31:04;;;;;;;0.00;0.00;;;;;;;;;;4993513;28;20038;-82
2022/08/15 13:33:31;;;;;;;0.00;0.00;;;;;;;;;;4993814;28;20042;-82
2022/08/15 13:35:58;;;;;;;0.00;0.00;;;;;;;;;;4993418;28;20046;-82
2022/08/15 13:38:26;;;;;;;0.00;0.00;;;;;;;;;;4993515;28;20042;-82
2022/08/15 13:40:52;;;;;;;0.00;0.00;;;;;;;;;;4993356;28;20533;-83
2022/08/15 13:43:18;;;;;;;0.17;0.13;;;;;;;;;;4993367;28;20077;-82
2022/08/15 13:45:45;;;;;;;0.00;0.00;;;;;;;;;;4993495;28;20060;-82
2022/08/15 13:48:16;;;;;;;0.00;0.00;;;;;;;;;;4993519;28;20128;-82
2022/08/15 13:50:43;;;;;;;0.00;0.00;;;;;;;;;;4976970;28;20038;-82
2022/08/15 13:53:09;;;;;;;0.00;0.00;;;;;;;;;;4993273;28;20101;-83
2022/08/15 13:55:35;;;;;;;0.00;0.00;;;;;;;;;;4992850;28;20062;-82
2022/08/15 13:58:01;;;;;;;0.00;0.00;;;;;;;;;;4993103;28;20061;-82
2022/08/15 14:00:27;;;;;;;0.00;0.00;;;;;;;;;;4992863;28;20034;-83
2022/08/15 14:02:53;;;;;;;0.00;0.00;;;;;;;;;;4976801;28;20042;-82
2022/08/15 14:05:19;;;;;;;0.00;0.00;;;;;;;;;;4992917;28;20042;-81
2022/08/15 14:07:46;;;;;;;0.00;0.00;;;;;;;;;;4993364;28;20177;-82
2022/08/15 14:10:17;;;;;;;0.00;0.00;;;;;;;;;;4992948;28;20132;-83
2022/08/15 14:12:43;;;;;;;0.00;0.00;;;;;;;;;;4994271;28;20042;-82
2022/08/15 14:15:14;;;;;;;0.00;0.00;;;;;;;;;;4992616;28;20050;-82
2022/08/15 14:17:44;;;;;;;0.00;0.00;;;;;;;;;;4992734;28;20046;-82
2022/08/15 14:20:12;;;;;;;0.13;0.00;;;;;;;;;;4992601;28;20397;-82
2022/08/15 14:22:38;;;;;;;0.00;0.00;;;;;;;;;;4992601;28;20042;-83
2022/08/15 14:25:04;;;;;;;0.13;0.10;;;;;;;;;;4992463;28;20045;-82
2022/08/15 14:27:31;;;;;;;0.00;0.00;;;;;;;;;;4992417;28;20057;-84
2022/08/15 14:29:58;;;;;;;0.00;0.00;;;;;;;;;;4976595;28;20049;-82
2022/08/15 14:32:25;;;;;;;0.00;0.00;;;;;;;;;;4992831;28;20116;-83
2022/08/15 14:34:51;;;;;;;0.00;0.00;;;;;;;;;;4993536;28;20039;-83
2022/08/15 14:37:19;;;;;;;0.00;0.00;;;;;;;;;;4992454;28;20049;-83
2022/08/15 14:39:46;;;;;;;0.00;0.00;;;;;;;;;;4992092;28;20042;-82
2022/08/15 14:42:13;;;;;;;0.00;0.00;;;;;;;;;;4992324;28;20051;-83
2022/08/15 14:44:42;;;;;;;0.00;0.00;;;;;;;;;;4992098;28;20125;-83
2022/08/15 14:47:08;;;;;;;0.00;0.00;;;;;;;;;;4992124;28;20057;-82
2022/08/15 14:49:34;;;;;;;0.00;0.00;;;;;;;;;;4992186;28;20457;-83
2022/08/15 14:52:01;;;;;;;0.00;0.00;;;;;;;;;;4992110;28;20042;-83
2022/08/15 14:54:31;;;;;;;0.00;0.00;;;;;;;;;;4992229;28;20132;-84
2022/08/15 14:56:58;;;;;;;0.00;0.00;;;;;;;;;;4976084;28;20100;-84
2022/08/15 14:59:24;;;;;;;0.00;0.00;;;;;;;;;;4992444;28;20520;-83
2022/08/15 15:01:51;;;;;;;0.00;0.00;;;;;;;;;;4992158;28;20052;-88
2022/08/15 15:04:17;;;;;;;0.00;0.00;;;;;;;;;;4991711;28;20081;-84
2022/08/15 15:06:43;;;;;;;0.00;0.00;;;;;;;;;;4975823;28;20505;-83
2022/08/15 15:09:14;;;;;;;0.05;0.05;;;;;;;;;;4975775;28;20042;-82
2022/08/15 15:11:45;;;;;;;0.00;0.00;;;;;;;;;;4991585;28;20088;-84
2022/08/15 15:14:15;;;;;;;0.00;0.00;;;;;;;;;;4992061;28;20038;-83
2022/08/15 15:16:42;;;;;;;0.00;0.00;;;;;;;;;;4975340;28;20039;-83